createdAt,value
2023-05-16T00:00:54.306Z,13.85
2023-05-16T00:03:57.413Z,13.85
2023-05-16T00:07:02.047Z,13.87
2023-05-16T00:10:06.338Z,13.92
2023-05-16T00:13:09.923Z,13.93
2023-05-16T00:16:14.530Z,13.93
2023-05-16T00:19:17.483Z,13.94
2023-05-16T00:22:21.662Z,13.93
2023-05-16T00:25:24.383Z,13.91
2023-05-16T00:28:27.256Z,13.86
2023-05-16T00:31:30.062Z,13.82
2023-05-16T00:34:32.790Z,13.84
2023-05-16T00:37:36.923Z,13.84
2023-05-16T00:40:40.342Z,13.87
2023-05-16T00:43:43.069Z,13.91
2023-05-16T00:46:45.846Z,13.92
2023-05-16T00:49:48.838Z,13.96
2023-05-16T00:52:53.000Z,14.03
2023-05-16T00:55:57.590Z,14.07
2023-05-16T00:59:00.676Z,14.08
2023-05-16T01:02:03.944Z,14.14
2023-05-16T01:05:07.591Z,14.08
2023-05-16T01:08:11.622Z,14.11
2023-05-16T01:11:23.405Z,14.06
2023-05-16T01:14:33.966Z,14.06
2023-05-16T01:17:45.592Z,14.08
2023-05-16T01:20:56.064Z,14.11
2023-05-16T01:24:11.280Z,14.13
2023-05-16T01:27:16.869Z,14.11
2023-05-16T01:30:21.243Z,14.13
2023-05-16T01:33:23.932Z,14.13
2023-05-16T01:36:31.856Z,14.17
2023-05-16T01:39:39.015Z,14.20
2023-05-16T01:42:46.423Z,14.13
2023-05-16T01:45:55.088Z,14.12
2023-05-16T01:49:16.815Z,14.12
2023-05-16T01:52:27.030Z,14.06
2023-05-16T01:55:43.812Z,14.00
2023-05-16T01:58:51.052Z,14.03
2023-05-16T02:01:54.963Z,14.00
2023-05-16T02:04:57.618Z,13.99
2023-05-16T02:08:00.539Z,13.91
2023-05-16T02:11:03.313Z,13.89
2023-05-16T02:14:07.305Z,13.91
2023-05-16T02:17:10.024Z,13.97
2023-05-16T02:20:14.181Z,13.88
2023-05-16T02:23:16.888Z,14.00
2023-05-16T02:26:19.730Z,13.92
2023-05-16T02:29:23.775Z,14.14
2023-05-16T02:32:26.649Z,14.14
2023-05-16T02:35:29.555Z,14.17
2023-05-16T02:38:32.307Z,14.17
2023-05-16T02:41:34.995Z,14.14
2023-05-16T02:44:39.033Z,14.20
2023-05-16T02:47:41.748Z,14.14
2023-05-16T02:50:44.498Z,14.13
2023-05-16T02:53:47.184Z,14.10
2023-05-16T02:56:49.888Z,14.19
2023-05-16T02:59:53.947Z,14.14
2023-05-16T03:02:57.037Z,14.15
2023-05-16T03:05:59.851Z,14.17
2023-05-16T03:09:03.239Z,14.17
2023-05-16T03:12:07.144Z,14.10
2023-05-16T03:15:12.147Z,14.04
2023-05-16T03:18:14.830Z,14.05
2023-05-16T03:21:17.540Z,14.01
2023-05-16T03:24:23.001Z,13.97
2023-05-16T03:27:27.809Z,13.89
2023-05-16T03:30:31.983Z,13.83
2023-05-16T03:33:34.777Z,13.87
2023-05-16T03:36:37.586Z,13.84
2023-05-16T03:39:40.377Z,13.85
2023-05-16T03:42:43.165Z,13.82
2023-05-16T03:45:47.219Z,13.86
2023-05-16T03:48:50.006Z,13.88
2023-05-16T03:51:52.703Z,13.87
2023-05-16T03:54:55.479Z,13.89
2023-05-16T03:57:58.332Z,13.88
2023-05-16T04:01:03.154Z,13.88
2023-05-16T04:04:05.983Z,13.92
2023-05-16T04:07:15.953Z,13.95
2023-05-16T04:10:18.637Z,13.97
2023-05-16T04:13:21.367Z,13.97
2023-05-16T04:16:25.459Z,13.98
2023-05-16T04:19:28.160Z,13.99
2023-05-16T04:22:30.892Z,14.00
2023-05-16T04:25:33.654Z,14.01
2023-05-16T04:28:36.589Z,14.04
2023-05-16T04:31:40.689Z,14.07
2023-05-16T04:34:44.267Z,14.09
2023-05-16T04:37:47.243Z,14.11
2023-05-16T04:40:51.060Z,13.94
2023-05-16T04:43:53.816Z,14.13
2023-05-16T04:46:57.985Z,14.08
2023-05-16T04:50:00.751Z,14.06
2023-05-16T04:53:03.850Z,14.07
2023-05-16T04:56:07.067Z,14.14
2023-05-16T04:59:09.801Z,14.10
2023-05-16T05:02:14.242Z,14.11
2023-05-16T05:05:17.081Z,14.10
2023-05-16T05:08:19.937Z,14.13
2023-05-16T05:11:23.192Z,14.17
2023-05-16T05:14:25.883Z,14.21
2023-05-16T05:17:30.084Z,14.25
2023-05-16T05:20:32.868Z,14.13
2023-05-16T05:23:35.834Z,14.16
2023-05-16T05:26:38.663Z,14.19
2023-05-16T05:29:41.450Z,14.23
2023-05-16T05:32:45.604Z,14.25
2023-05-16T05:35:48.340Z,14.31
2023-05-16T05:38:51.208Z,14.36
2023-05-16T05:41:53.841Z,14.43
2023-05-16T05:44:58.931Z,14.45
2023-05-16T05:48:03.127Z,14.49
2023-05-16T05:51:06.125Z,14.52
2023-05-16T05:54:09.213Z,14.59
2023-05-16T05:57:11.947Z,14.60
2023-05-16T06:00:18.063Z,14.59
2023-05-16T06:03:22.290Z,14.64
2023-05-16T06:06:25.043Z,14.79
2023-05-16T06:09:27.716Z,14.90
2023-05-16T06:12:30.374Z,15.06
2023-05-16T06:15:33.109Z,15.25
2023-05-16T06:18:37.199Z,15.39
2023-05-16T06:21:39.880Z,15.53
2023-05-16T06:24:42.571Z,15.78
2023-05-16T06:27:47.264Z,15.91
2023-05-16T06:30:51.806Z,16.01
2023-05-16T06:33:56.462Z,16.03
2023-05-16T06:36:59.808Z,15.93
2023-05-16T06:40:02.656Z,15.82
2023-05-16T06:43:05.392Z,15.61
2023-05-16T06:46:08.142Z,15.43
2023-05-16T06:49:12.366Z,15.43
2023-05-16T06:52:15.081Z,15.39
2023-05-16T06:55:17.985Z,15.39
2023-05-16T06:58:20.784Z,15.36
2023-05-16T07:01:27.375Z,15.43
2023-05-16T07:04:31.530Z,15.36
2023-05-16T07:07:34.254Z,15.16
2023-05-16T07:10:37.189Z,14.96
2023-05-16T07:13:39.882Z,15.00
2023-05-16T07:16:42.834Z,14.99
2023-05-16T07:19:46.893Z,15.00
2023-05-16T07:22:49.658Z,14.99
2023-05-16T07:25:53.331Z,14.99
2023-05-16T07:28:56.233Z,14.88
2023-05-16T07:31:59.384Z,14.86
2023-05-16T07:35:03.677Z,14.74
2023-05-16T07:38:06.562Z,14.80
2023-05-16T07:41:11.617Z,14.77
2023-05-16T07:44:14.609Z,14.67
2023-05-16T07:47:17.342Z,14.78
2023-05-16T07:50:24.769Z,14.79
2023-05-16T07:53:27.469Z,14.90
2023-05-16T07:56:30.263Z,15.05
2023-05-16T07:59:33.109Z,15.22
2023-05-16T08:02:36.143Z,15.31
2023-05-16T08:05:41.322Z,15.31
2023-05-16T08:08:47.381Z,15.27
2023-05-16T08:11:50.375Z,15.24
2023-05-16T08:14:53.090Z,15.21
2023-05-16T08:17:58.532Z,15.22
2023-05-16T08:21:02.846Z,15.29
2023-05-16T08:24:06.447Z,15.04
2023-05-16T08:27:09.637Z,15.01
2023-05-16T08:30:13.207Z,14.72
2023-05-16T08:33:16.190Z,14.73
2023-05-16T08:36:20.682Z,14.46
2023-05-16T08:39:30.678Z,14.12
2023-05-16T08:42:35.021Z,13.91
2023-05-16T08:45:45.335Z,13.55
2023-05-16T08:48:48.702Z,13.50
2023-05-16T08:51:53.471Z,13.48
2023-05-16T08:55:09.151Z,13.32
2023-05-16T08:58:21.830Z,13.22
2023-05-16T09:01:24.820Z,13.32
2023-05-16T09:04:27.984Z,13.46
2023-05-16T09:07:32.215Z,13.60
2023-05-16T09:10:34.894Z,13.62
2023-05-16T09:13:38.817Z,13.78
2023-05-16T09:16:41.651Z,13.85
2023-05-16T09:19:45.093Z,13.87
2023-05-16T09:22:54.247Z,13.97
2023-05-16T09:25:59.234Z,13.97
2023-05-16T09:29:02.323Z,14.09
2023-05-16T09:32:15.860Z,14.09
2023-05-16T09:35:27.235Z,14.14
2023-05-16T09:38:38.881Z,14.12
2023-05-16T09:41:41.594Z,14.17
2023-05-16T09:44:48.082Z,14.25
2023-05-16T09:47:53.925Z,14.52
2023-05-16T09:51:06.018Z,14.56
2023-05-16T09:54:10.505Z,14.90
2023-05-16T09:57:13.236Z,15.04
2023-05-16T10:00:17.321Z,14.71
2023-05-16T10:03:20.503Z,14.72
2023-05-16T10:06:23.640Z,14.83
2023-05-16T10:09:29.327Z,14.62
2023-05-16T10:12:33.208Z,14.48
2023-05-16T10:15:39.106Z,14.43
2023-05-16T10:18:43.401Z,14.31
2023-05-16T10:21:51.412Z,14.37
2023-05-16T10:25:05.379Z,14.53
2023-05-16T10:28:16.460Z,14.45
2023-05-16T10:31:19.485Z,14.31
2023-05-16T10:34:23.139Z,14.21
2023-05-16T10:37:26.600Z,14.23
2023-05-16T10:40:31.788Z,14.10
2023-05-16T10:43:34.475Z,14.08
2023-05-16T10:46:39.460Z,14.04
2023-05-16T10:49:42.680Z,13.92
2023-05-16T10:52:45.377Z,14.01
2023-05-16T10:56:10.468Z,14.16
2023-05-16T10:59:28.432Z,14.09
2023-05-16T11:02:34.703Z,14.27
2023-05-16T11:05:38.228Z,14.30
2023-05-16T11:08:59.360Z,14.44
2023-05-16T11:12:03.936Z,14.64
2023-05-16T11:15:28.527Z,14.66
2023-05-16T11:18:33.804Z,14.98
2023-05-16T11:22:22.938Z,15.23
2023-05-16T11:25:39.294Z,15.58
2023-05-16T11:28:43.557Z,16.13
2023-05-16T11:31:46.654Z,16.18
2023-05-16T11:34:49.817Z,16.60
2023-05-16T11:37:52.637Z,17.15
2023-05-16T11:40:55.384Z,17.05
2023-05-16T11:43:59.543Z,16.92
2023-05-16T11:47:03.624Z,16.72
2023-05-16T11:50:07.866Z,15.93
2023-05-16T11:53:10.650Z,15.54
2023-05-16T11:56:13.526Z,15.60
2023-05-16T11:59:18.235Z,15.79
2023-05-16T12:02:21.925Z,16.14
2023-05-16T12:05:28.378Z,16.27
2023-05-16T12:08:31.333Z,16.48
2023-05-16T12:11:34.450Z,16.69
2023-05-16T12:14:38.498Z,16.84
2023-05-16T12:17:42.868Z,17.02
2023-05-16T12:20:46.227Z,17.14
2023-05-16T12:23:49.053Z,16.96
2023-05-16T12:26:54.605Z,16.86
2023-05-16T12:30:00.516Z,16.97
2023-05-16T12:33:09.377Z,17.16
2023-05-16T12:36:15.687Z,17.26
2023-05-16T12:39:18.524Z,17.73
2023-05-16T12:42:21.475Z,17.83
2023-05-16T12:45:25.894Z,18.08
2023-05-16T12:48:33.686Z,17.66
2023-05-16T12:51:36.578Z,17.79
2023-05-16T12:54:39.895Z,18.12
2023-05-16T12:57:43.992Z,18.04
2023-05-16T13:00:48.639Z,18.20
2023-05-16T13:03:51.431Z,18.11
2023-05-16T13:06:59.133Z,18.09
2023-05-16T13:10:04.250Z,17.99
2023-05-16T13:13:07.185Z,18.19
2023-05-16T13:16:11.779Z,18.35
2023-05-16T13:19:14.532Z,18.52
2023-05-16T13:22:17.363Z,18.35
2023-05-16T13:25:20.539Z,18.10
2023-05-16T13:28:23.431Z,17.76
2023-05-16T13:31:27.751Z,18.14
2023-05-16T13:34:30.595Z,18.32
2023-05-16T13:37:33.517Z,18.13
2023-05-16T13:40:36.556Z,18.34
2023-05-16T13:43:39.275Z,18.54
2023-05-16T13:46:43.449Z,18.65
2023-05-16T13:49:46.173Z,18.54
2023-05-16T13:52:49.203Z,18.86
2023-05-16T13:55:52.008Z,19.21
2023-05-16T13:59:03.764Z,19.31
2023-05-16T14:02:10.282Z,18.84
2023-05-16T14:05:13.179Z,18.80
2023-05-16T14:08:15.934Z,18.67
2023-05-16T14:11:19.652Z,18.89
2023-05-16T14:14:22.608Z,18.42
2023-05-16T14:17:26.864Z,18.10
2023-05-16T14:20:29.634Z,17.96
2023-05-16T14:23:32.355Z,17.77
2023-05-16T14:26:35.151Z,17.71
2023-05-16T14:29:38.171Z,17.55
2023-05-16T14:32:42.475Z,17.33
2023-05-16T14:35:45.427Z,17.13
2023-05-16T14:38:49.571Z,17.09
2023-05-16T14:41:53.028Z,17.11
2023-05-16T14:44:55.811Z,17.40
2023-05-16T14:48:00.111Z,17.47
2023-05-16T14:51:03.699Z,17.86
2023-05-16T14:54:06.671Z,17.93
2023-05-16T14:57:09.642Z,18.20
2023-05-16T15:00:17.077Z,18.12
2023-05-16T15:03:21.487Z,17.78
2023-05-16T15:06:26.710Z,17.53
2023-05-16T15:09:29.530Z,17.49
2023-05-16T15:12:32.568Z,17.64
2023-05-16T15:15:35.492Z,17.67
2023-05-16T15:18:40.778Z,17.73
2023-05-16T15:21:43.684Z,17.86
2023-05-16T15:24:46.596Z,18.00
2023-05-16T15:27:49.614Z,17.77
2023-05-16T15:30:52.699Z,17.54
2023-05-16T15:33:56.851Z,17.11
2023-05-16T15:36:59.896Z,17.16
2023-05-16T15:40:04.434Z,16.99
2023-05-16T15:43:07.363Z,17.00
2023-05-16T15:46:10.537Z,17.11
2023-05-16T15:49:14.883Z,17.09
2023-05-16T15:52:17.658Z,16.98
2023-05-16T15:55:20.532Z,16.73
2023-05-16T15:58:24.297Z,16.78
2023-05-16T16:01:27.627Z,16.67
2023-05-16T16:04:32.714Z,16.64
2023-05-16T16:07:35.553Z,16.51
2023-05-16T16:10:38.618Z,16.60
2023-05-16T16:13:41.442Z,16.50
2023-05-16T16:16:44.835Z,16.51
2023-05-16T16:19:49.148Z,16.47
2023-05-16T16:22:52.669Z,16.44
2023-05-16T16:25:55.786Z,16.41
2023-05-16T16:28:58.839Z,16.50
2023-05-16T16:32:01.642Z,16.48
2023-05-16T16:35:06.805Z,16.44
2023-05-16T16:38:09.716Z,16.53
2023-05-16T16:41:14.786Z,16.52
2023-05-16T16:44:18.032Z,16.33
2023-05-16T16:47:21.303Z,16.42
2023-05-16T16:50:31.104Z,16.29
2023-05-16T16:53:35.282Z,16.35
2023-05-16T16:56:38.083Z,16.28
2023-05-16T16:59:40.981Z,16.26
2023-05-16T17:02:43.869Z,16.12
2023-05-16T17:05:48.213Z,16.21
2023-05-16T17:08:51.007Z,16.25
2023-05-16T17:11:54.031Z,16.13
2023-05-16T17:14:57.315Z,16.03
2023-05-16T17:18:00.259Z,16.15
2023-05-16T17:21:05.181Z,16.19
2023-05-16T17:24:08.595Z,16.22
2023-05-16T17:27:11.726Z,16.04
2023-05-16T17:30:15.548Z,16.08
2023-05-16T17:33:19.982Z,15.88
2023-05-16T17:36:24.316Z,15.92
2023-05-16T17:39:27.125Z,15.85
2023-05-16T17:42:29.832Z,15.83
2023-05-16T17:45:32.799Z,15.71
2023-05-16T17:48:35.611Z,15.65
2023-05-16T17:51:50.808Z,15.53
2023-05-16T17:54:53.622Z,15.42
2023-05-16T17:57:56.483Z,15.34
2023-05-16T18:00:59.190Z,15.21
2023-05-16T18:04:02.219Z,15.18
2023-05-16T18:07:06.529Z,15.16
2023-05-16T18:10:10.389Z,15.02
2023-05-16T18:13:13.985Z,14.92
2023-05-16T18:16:17.200Z,14.79
2023-05-16T18:19:20.699Z,14.80
2023-05-16T18:22:26.085Z,14.77
2023-05-16T18:25:29.377Z,14.68
2023-05-16T18:28:32.259Z,14.72
2023-05-16T18:31:35.542Z,14.69
2023-05-16T18:34:41.450Z,14.77
2023-05-16T18:37:46.682Z,14.80
2023-05-16T18:40:50.447Z,14.75
2023-05-16T18:43:53.298Z,14.69
2023-05-16T18:46:58.698Z,14.47
2023-05-16T18:50:02.577Z,14.41
2023-05-16T18:53:06.767Z,14.22
2023-05-16T18:56:09.462Z,14.00
2023-05-16T18:59:12.506Z,13.88
2023-05-16T19:02:15.867Z,13.81
2023-05-16T19:05:19.561Z,13.69
2023-05-16T19:08:25.573Z,13.65
2023-05-16T19:11:30.030Z,13.56
2023-05-16T19:14:32.924Z,13.46
2023-05-16T19:17:35.717Z,13.41
2023-05-16T19:20:43.235Z,13.26
2023-05-16T19:23:49.028Z,13.21
2023-05-16T19:26:51.854Z,13.10
2023-05-16T19:29:54.576Z,13.10
2023-05-16T19:32:58.679Z,12.98
2023-05-16T19:36:05.891Z,12.91
2023-05-16T19:39:11.209Z,12.81
2023-05-16T19:42:13.920Z,12.74
2023-05-16T19:45:16.671Z,12.69
2023-05-16T19:48:20.050Z,12.53
2023-05-16T19:51:37.227Z,12.53
2023-05-16T19:54:45.346Z,12.47
2023-05-16T19:57:48.144Z,12.49
2023-05-16T20:00:51.843Z,12.41
2023-05-16T20:03:54.623Z,12.38
2023-05-16T20:06:57.850Z,12.40
2023-05-16T20:10:02.369Z,12.30
2023-05-16T20:13:05.460Z,12.26
2023-05-16T20:16:08.384Z,12.17
2023-05-16T20:19:13.597Z,12.09
2023-05-16T20:22:17.117Z,12.06
2023-05-16T20:25:21.321Z,11.94
2023-05-16T20:28:27.348Z,11.86
2023-05-16T20:31:30.376Z,11.66
2023-05-16T20:34:33.262Z,11.74
2023-05-16T20:37:36.008Z,11.64
2023-05-16T20:40:40.838Z,11.58
2023-05-16T20:43:43.618Z,11.55
2023-05-16T20:46:46.560Z,11.53
2023-05-16T20:49:49.396Z,11.47
2023-05-16T20:52:52.162Z,11.43
2023-05-16T20:55:56.292Z,11.40
2023-05-16T20:58:59.171Z,11.39
2023-05-16T21:02:01.919Z,11.29
2023-05-16T21:05:22.990Z,11.25
2023-05-16T21:08:28.006Z,11.23
2023-05-16T21:11:32.990Z,11.18
2023-05-16T21:14:35.670Z,11.14
2023-05-16T21:17:39.838Z,11.22
2023-05-16T21:20:42.762Z,11.12
2023-05-16T21:23:45.480Z,11.14
2023-05-16T21:26:49.543Z,11.01
2023-05-16T21:29:52.236Z,10.94
2023-05-16T21:32:55.010Z,10.90
2023-05-16T21:35:57.818Z,10.85
2023-05-16T21:39:00.546Z,10.79
2023-05-16T21:42:05.337Z,10.75
2023-05-16T21:45:12.574Z,10.69
2023-05-16T21:48:15.696Z,10.64
2023-05-16T21:51:19.496Z,10.50
2023-05-16T21:54:22.218Z,10.54
2023-05-16T21:57:26.398Z,10.50
2023-05-16T22:00:29.126Z,10.47
2023-05-16T22:03:31.961Z,10.42
2023-05-16T22:06:34.743Z,10.40
2023-05-16T22:09:37.554Z,10.37
2023-05-16T22:12:41.655Z,10.35
2023-05-16T22:15:52.161Z,10.29
2023-05-16T22:19:08.963Z,10.24
2023-05-16T22:22:12.358Z,10.19
2023-05-16T22:25:15.649Z,10.16
2023-05-16T22:28:19.958Z,10.13
2023-05-16T22:31:22.674Z,10.07
2023-05-16T22:34:25.558Z,10.04
2023-05-16T22:37:28.306Z,10.05
2023-05-16T22:40:31.572Z,10.06
2023-05-16T22:43:35.789Z,10.01
2023-05-16T22:46:38.514Z,9.92
2023-05-16T22:49:41.290Z,9.90
2023-05-16T22:52:44.094Z,9.85
2023-05-16T22:55:46.811Z,9.81
2023-05-16T22:58:50.835Z,9.72
2023-05-16T23:01:53.776Z,9.65
2023-05-16T23:04:56.517Z,9.63
2023-05-16T23:07:59.391Z,9.62
2023-05-16T23:11:02.145Z,9.57
2023-05-16T23:14:06.198Z,9.57
2023-05-16T23:17:09.064Z,9.54
2023-05-16T23:20:14.985Z,9.49
2023-05-16T23:23:17.672Z,9.50
2023-05-16T23:26:21.054Z,9.46
2023-05-16T23:29:25.156Z,9.44
2023-05-16T23:32:27.996Z,9.50
2023-05-16T23:35:30.741Z,9.45
2023-05-16T23:38:33.448Z,9.42
2023-05-16T23:41:36.178Z,9.32
2023-05-16T23:44:41.775Z,9.29
2023-05-16T23:47:44.553Z,9.31
2023-05-16T23:50:47.351Z,9.24
2023-05-16T23:53:50.139Z,9.19
2023-05-16T23:56:52.896Z,9.16
2023-05-16T23:59:57.589Z,9.13
